createdAt,value
2018-07-02T00:01:18.934Z,99.90
2018-07-02T00:03:50.955Z,99.90
2018-07-02T00:06:42.771Z,99.90
2018-07-02T00:11:45.742Z,99.90
2018-07-02T00:14:17.899Z,99.90
2018-07-02T00:16:49.782Z,99.90
2018-07-02T00:19:21.899Z,99.90
2018-07-02T00:21:53.950Z,99.90
2018-07-02T00:26:56.731Z,99.90
2018-07-02T00:29:28.650Z,99.90
2018-07-02T00:32:00.521Z,99.90
2018-07-02T00:37:03.127Z,99.90
2018-07-02T00:39:36.899Z,99.90
2018-07-02T00:42:08.787Z,99.90
2018-07-02T00:44:40.910Z,99.90
2018-07-02T00:49:44.024Z,99.90
2018-07-02T00:52:15.676Z,99.90
2018-07-02T00:59:49.936Z,99.90
2018-07-02T01:04:54.376Z,99.90
2018-07-02T01:07:26.077Z,99.90
2018-07-02T01:09:58.734Z,99.90
2018-07-02T01:12:30.330Z,99.90
2018-07-02T01:15:02.255Z,99.90
2018-07-02T01:17:34.191Z,99.90
2018-07-02T01:20:06.531Z,99.90
2018-07-02T01:25:09.530Z,99.90
2018-07-02T01:27:41.116Z,99.90
2018-07-02T01:30:12.909Z,99.90
2018-07-02T01:32:44.870Z,99.90
2018-07-02T01:35:16.598Z,99.90
2018-07-02T01:37:48.091Z,99.90
2018-07-02T01:40:21.432Z,99.90
2018-07-02T01:42:53.378Z,99.90
2018-07-02T01:45:25.442Z,99.90
2018-07-02T01:47:57.482Z,99.90
2018-07-02T01:50:29.324Z,99.90
2018-07-02T01:53:01.102Z,99.90
2018-07-02T01:55:33.076Z,99.90
2018-07-02T01:58:04.861Z,99.90
2018-07-02T02:00:36.917Z,99.90
2018-07-02T02:05:40.492Z,99.90
2018-07-02T02:08:12.305Z,99.90
2018-07-02T02:10:44.830Z,99.90
2018-07-02T02:13:16.858Z,99.90
2018-07-02T02:15:49.093Z,99.90
2018-07-02T02:18:20.770Z,99.90
2018-07-02T02:23:23.396Z,99.90
2018-07-02T02:26:05.576Z,99.90
2018-07-02T02:28:39.345Z,99.90
2018-07-02T02:31:11.338Z,99.90
2018-07-02T02:33:42.969Z,99.90
2018-07-02T02:36:14.825Z,99.90
2018-07-02T02:38:46.618Z,99.90
2018-07-02T02:41:20.476Z,99.90
2018-07-02T02:43:52.599Z,99.90
2018-07-02T02:46:24.442Z,99.90
2018-07-02T02:48:56.322Z,99.90
2018-07-02T02:51:28.544Z,99.90
2018-07-02T02:54:00.390Z,99.90
2018-07-02T02:56:32.494Z,99.90
2018-07-02T02:59:04.519Z,99.90
2018-07-02T03:01:36.663Z,99.90
2018-07-02T03:04:08.621Z,99.90
2018-07-02T03:06:40.958Z,99.90
2018-07-02T03:09:12.729Z,99.90
2018-07-02T03:11:44.910Z,99.90
2018-07-02T03:14:16.969Z,99.90
2018-07-02T03:16:49.085Z,99.90
2018-07-02T03:19:20.649Z,99.90
2018-07-02T03:21:52.730Z,99.90
2018-07-02T03:24:24.452Z,99.90
2018-07-02T03:26:56.470Z,99.90
2018-07-02T03:29:28.212Z,99.90
2018-07-02T03:32:00.475Z,99.90
2018-07-02T03:34:32.570Z,99.90
2018-07-02T03:37:04.913Z,99.90
2018-07-02T03:39:36.853Z,99.90
2018-07-02T03:42:10.594Z,99.90
2018-07-02T03:44:42.578Z,99.90
2018-07-02T03:47:15.212Z,99.90
2018-07-02T03:49:47.082Z,99.90
2018-07-02T03:52:19.715Z,99.90
2018-07-02T03:54:51.518Z,99.90
2018-07-02T03:57:23.635Z,99.90
2018-07-02T03:59:55.322Z,99.90
2018-07-02T04:02:27.443Z,99.90
2018-07-02T04:04:59.311Z,99.90
2018-07-02T04:07:31.479Z,99.90
2018-07-02T04:10:03.470Z,99.90
2018-07-02T04:12:35.542Z,99.90
2018-07-02T04:15:07.487Z,99.90
2018-07-02T04:17:40.170Z,99.90
2018-07-02T04:20:12.017Z,99.90
2018-07-02T04:22:44.415Z,99.90
2018-07-02T04:25:16.223Z,99.90
2018-07-02T04:27:48.279Z,99.90
2018-07-02T04:30:20.206Z,99.90
2018-07-02T04:32:53.353Z,99.50
2018-07-02T04:35:25.046Z,98.50
2018-07-02T04:37:57.285Z,97.50
2018-07-02T04:40:29.065Z,96.70
2018-07-02T04:43:02.078Z,95.60
2018-07-02T04:45:34.045Z,94.70
2018-07-02T04:48:06.370Z,93.20
2018-07-02T04:50:38.499Z,92.10
2018-07-02T04:53:10.783Z,91.20
2018-07-02T04:55:42.700Z,89.50
2018-07-02T04:58:15.129Z,84.90
2018-07-02T05:00:46.894Z,82.50
2018-07-02T05:03:18.950Z,79.80
2018-07-02T05:05:50.857Z,76.70
2018-07-02T05:08:22.681Z,73.10
2018-07-02T05:10:54.313Z,70.30
2018-07-02T05:13:26.339Z,69.40
2018-07-02T05:18:29.046Z,68.70
2018-07-02T05:21:00.797Z,69.50
2018-07-02T05:23:32.725Z,67.00
2018-07-02T05:26:04.690Z,66.10
2018-07-02T05:28:36.746Z,66.20
2018-07-02T05:31:08.681Z,62.70
2018-07-02T05:33:40.935Z,59.70
2018-07-02T05:36:12.827Z,59.30
2018-07-02T05:38:44.394Z,58.20
2018-07-02T05:41:16.596Z,57.40
2018-07-02T05:43:49.725Z,57.90
2018-07-02T05:46:21.796Z,57.80
2018-07-02T05:48:53.697Z,57.90
2018-07-02T05:51:25.574Z,58.80
2018-07-02T05:53:57.738Z,58.90
2018-07-02T05:56:29.659Z,57.90
2018-07-02T05:59:01.861Z,57.90
2018-07-02T06:04:04.822Z,58.60
2018-07-02T06:06:36.828Z,59.20
2018-07-02T06:09:12.073Z,59.40
2018-07-02T06:11:43.898Z,59.30
2018-07-02T06:14:16.123Z,58.60
2018-07-02T06:19:19.057Z,58.70
2018-07-02T06:21:50.819Z,57.80
2018-07-02T06:24:23.090Z,56.70
2018-07-02T06:26:55.010Z,55.20
2018-07-02T06:31:58.262Z,53.80
2018-07-02T06:34:34.439Z,53.50
2018-07-02T06:37:06.473Z,53.10
2018-07-02T06:39:38.268Z,53.20
2018-07-02T06:42:10.027Z,54.20
2018-07-02T06:44:43.622Z,55.00
2018-07-02T06:47:15.284Z,56.00
2018-07-02T06:49:47.275Z,60.00
2018-07-02T06:52:19.064Z,65.40
2018-07-02T06:57:22.298Z,68.60
2018-07-02T06:59:54.301Z,69.90
2018-07-02T07:02:25.986Z,67.20
2018-07-02T07:04:58.269Z,63.90
2018-07-02T07:07:29.995Z,62.10
2018-07-02T07:10:02.375Z,59.90
2018-07-02T07:12:34.230Z,57.40
2018-07-02T07:15:06.750Z,57.70
2018-07-02T07:17:38.531Z,57.80
2018-07-02T07:20:10.798Z,58.20
2018-07-02T07:22:42.603Z,59.20
2018-07-02T07:25:14.694Z,57.00
2018-07-02T07:27:46.586Z,56.90
2018-07-02T07:30:18.603Z,57.50
2018-07-02T07:32:54.798Z,56.60
2018-07-02T07:37:57.757Z,59.00
2018-07-02T07:40:29.641Z,58.70
2018-07-02T07:43:01.471Z,58.30
2018-07-02T07:45:34.007Z,59.30
2018-07-02T07:48:05.761Z,64.30
2018-07-02T07:50:37.747Z,67.00
2018-07-02T07:55:40.535Z,64.80
2018-07-02T07:58:12.353Z,60.90
2018-07-02T08:00:44.556Z,68.00
2018-07-02T08:03:16.334Z,71.60
2018-07-02T08:05:48.475Z,75.90
2018-07-02T08:08:20.266Z,81.50
2018-07-02T08:10:52.523Z,81.20
2018-07-02T08:13:24.504Z,83.10
2018-07-02T08:18:27.602Z,83.60
2018-07-02T08:20:59.971Z,82.70
2018-07-02T08:23:31.679Z,83.20
2018-07-02T08:26:03.798Z,83.30
2018-07-02T08:28:35.769Z,84.20
2018-07-02T08:31:08.054Z,83.40
2018-07-02T08:33:39.787Z,85.30
2018-07-02T08:36:11.658Z,85.30
2018-07-02T08:38:43.335Z,87.20
2018-07-02T08:41:15.213Z,88.80
2018-07-02T08:43:47.031Z,90.10
2018-07-02T08:46:20.747Z,89.30
2018-07-02T08:48:52.566Z,91.00
2018-07-02T08:51:24.785Z,92.80
2018-07-02T08:56:27.715Z,95.50
2018-07-02T08:58:59.558Z,93.80
2018-07-02T09:01:31.879Z,94.00
2018-07-02T09:04:03.730Z,94.90
2018-07-02T09:06:35.851Z,93.30
2018-07-02T09:09:11.855Z,91.10
2018-07-02T09:11:43.811Z,88.50
2018-07-02T09:14:15.537Z,91.60
2018-07-02T09:16:47.425Z,89.80
2018-07-02T09:19:19.205Z,92.70
2018-07-02T09:21:51.295Z,93.50
2018-07-02T09:24:23.086Z,90.00
2018-07-02T09:26:55.191Z,90.00
2018-07-02T09:29:27.110Z,87.90
2018-07-02T09:31:58.874Z,85.50
2018-07-02T09:34:30.558Z,88.50
2018-07-02T09:37:02.799Z,87.70
2018-07-02T09:39:34.596Z,90.30
2018-07-02T09:42:06.743Z,89.20
2018-07-02T09:44:38.551Z,91.30
2018-07-02T09:47:12.372Z,90.00
2018-07-02T09:49:44.121Z,89.90
2018-07-02T09:52:16.037Z,91.60
2018-07-02T09:54:47.685Z,91.50
2018-07-02T09:57:19.743Z,88.80
2018-07-02T09:59:51.530Z,88.60
2018-07-02T10:02:23.598Z,82.30
2018-07-02T10:04:55.107Z,85.60
2018-07-02T10:07:26.949Z,81.70
2018-07-02T10:09:58.610Z,83.50
2018-07-02T10:12:30.469Z,88.20
2018-07-02T10:17:33.243Z,89.00
2018-07-02T10:20:05.311Z,90.50
2018-07-02T10:22:37.521Z,87.20
2018-07-02T10:25:09.387Z,89.70
2018-07-02T10:27:41.677Z,90.30
2018-07-02T10:32:44.483Z,87.00
2018-07-02T10:35:16.226Z,79.60
2018-07-02T10:37:48.402Z,77.30
2018-07-02T10:40:20.270Z,78.90
2018-07-02T10:42:52.140Z,80.80
2018-07-02T10:45:23.750Z,81.00
2018-07-02T10:47:56.497Z,81.50
2018-07-02T10:50:28.466Z,83.50
2018-07-02T10:53:00.538Z,87.00
2018-07-02T10:55:32.087Z,91.60
2018-07-02T10:58:04.605Z,90.30
2018-07-02T11:00:36.163Z,90.70
2018-07-02T11:03:08.347Z,91.20
2018-07-02T11:05:40.600Z,92.10
2018-07-02T11:08:12.670Z,92.20
2018-07-02T11:13:16.730Z,92.00
2018-07-02T11:15:48.426Z,91.10
2018-07-02T11:18:20.780Z,91.40
2018-07-02T11:20:52.635Z,91.30
2018-07-02T11:23:24.809Z,91.10
2018-07-02T11:25:56.706Z,91.10
2018-07-02T11:28:28.817Z,90.30
2018-07-02T11:31:00.732Z,90.30
2018-07-02T11:33:32.847Z,90.90
2018-07-02T11:36:04.751Z,91.20
2018-07-02T11:38:36.675Z,91.20
2018-07-02T11:41:08.409Z,92.50
2018-07-02T11:43:40.406Z,93.10
2018-07-02T11:46:12.455Z,93.00
2018-07-02T11:48:45.406Z,92.20
2018-07-02T11:51:17.133Z,92.00
2018-07-02T11:53:49.328Z,92.40
2018-07-02T11:56:20.973Z,92.30
2018-07-02T11:58:53.870Z,91.90
2018-07-02T12:01:25.767Z,92.40
2018-07-02T12:03:57.779Z,92.10
2018-07-02T12:06:29.777Z,92.20
2018-07-02T12:09:01.853Z,92.80
2018-07-02T12:14:05.056Z,92.10
2018-07-02T12:16:36.786Z,91.40
2018-07-02T12:19:09.113Z,92.00
2018-07-02T12:21:40.851Z,92.10
2018-07-02T12:24:12.877Z,92.50
2018-07-02T12:26:44.467Z,92.40
2018-07-02T12:29:16.418Z,92.70
2018-07-02T12:31:48.046Z,92.80
2018-07-02T12:34:20.855Z,92.50
2018-07-02T12:36:52.704Z,92.80
2018-07-02T12:39:24.785Z,93.10
2018-07-02T12:41:56.701Z,93.00
2018-07-02T12:44:29.029Z,93.60
2018-07-02T12:47:00.746Z,93.70
2018-07-02T12:49:33.722Z,93.20
2018-07-02T12:52:05.353Z,93.00
2018-07-02T12:54:37.239Z,93.50
2018-07-02T12:57:09.203Z,93.40
2018-07-02T12:59:41.153Z,93.50
2018-07-02T13:02:12.797Z,93.30
2018-07-02T13:04:44.922Z,94.60
2018-07-02T13:07:16.569Z,94.80
2018-07-02T13:09:48.643Z,94.20
2018-07-02T13:12:20.463Z,93.70
2018-07-02T13:14:52.640Z,93.30
2018-07-02T13:17:24.709Z,92.90
2018-07-02T13:19:56.984Z,92.60
2018-07-02T13:22:28.798Z,93.20
2018-07-02T13:25:00.679Z,94.30
2018-07-02T13:27:32.322Z,94.50
2018-07-02T13:30:04.466Z,93.90
2018-07-02T13:32:36.309Z,95.20
2018-07-02T13:35:08.840Z,95.60
2018-07-02T13:37:40.482Z,96.40
2018-07-02T13:40:13.255Z,97.20
2018-07-02T13:42:45.095Z,97.50
2018-07-02T13:45:16.945Z,95.80
2018-07-02T13:47:48.578Z,95.00
2018-07-02T13:50:22.273Z,93.60
2018-07-02T13:52:53.959Z,93.90
2018-07-02T13:55:26.399Z,94.90
2018-07-02T13:57:58.083Z,95.60
2018-07-02T14:00:30.100Z,95.70
2018-07-02T14:03:01.930Z,95.90
2018-07-02T14:05:33.991Z,96.30
2018-07-02T14:08:06.146Z,97.10
2018-07-02T14:10:38.529Z,97.00
2018-07-02T14:13:10.466Z,97.60
2018-07-02T14:15:42.364Z,99.00
2018-07-02T14:20:45.746Z,99.00
2018-07-02T14:23:17.395Z,98.70
2018-07-02T14:25:49.938Z,98.90
2018-07-02T14:28:21.949Z,98.60
2018-07-02T14:30:54.011Z,98.70
2018-07-02T14:33:25.775Z,99.00
2018-07-02T14:35:58.039Z,99.50
2018-07-02T14:38:29.875Z,99.50
2018-07-02T14:41:02.111Z,99.80
2018-07-02T14:43:34.199Z,99.80
2018-07-02T14:46:06.826Z,99.90
2018-07-02T14:48:38.585Z,99.90
2018-07-02T14:51:12.563Z,99.30
2018-07-02T14:53:44.822Z,99.20
2018-07-02T14:56:16.964Z,99.60
2018-07-02T14:58:55.199Z,99.90
2018-07-02T15:01:27.273Z,99.90
2018-07-02T15:03:59.283Z,99.90
2018-07-02T15:06:31.436Z,99.90
2018-07-02T15:09:03.551Z,99.90
2018-07-02T15:11:35.837Z,99.90
2018-07-02T15:14:07.603Z,99.90
2018-07-02T15:16:39.494Z,99.90
2018-07-02T15:19:11.114Z,99.90
2018-07-02T15:21:43.093Z,99.90
2018-07-02T15:24:14.834Z,99.90
2018-07-02T15:26:47.127Z,99.90
2018-07-02T15:29:18.802Z,99.90
2018-07-02T15:34:21.683Z,99.90
2018-07-02T15:39:24.598Z,99.90
2018-07-02T15:41:56.572Z,99.90
2018-07-02T15:44:28.374Z,99.90
2018-07-02T15:47:00.003Z,99.90
2018-07-02T15:49:32.461Z,99.90
2018-07-02T15:52:05.116Z,99.90
2018-07-02T15:54:36.971Z,99.90
2018-07-02T15:57:09.078Z,99.90
2018-07-02T15:59:40.941Z,99.90
2018-07-02T16:02:12.638Z,99.90
2018-07-02T16:04:44.370Z,99.90
2018-07-02T16:07:16.358Z,99.90
2018-07-02T16:09:48.209Z,99.90
2018-07-02T16:12:20.447Z,99.90
2018-07-02T16:14:52.146Z,99.90
2018-07-02T16:17:24.853Z,99.90
2018-07-02T16:19:56.654Z,99.90
2018-07-02T16:22:30.473Z,99.90
2018-07-02T16:25:02.433Z,99.90
2018-07-02T16:27:34.490Z,99.90
2018-07-02T16:30:06.911Z,99.90
2018-07-02T16:32:39.044Z,99.90
2018-07-02T16:35:10.710Z,99.90
2018-07-02T16:37:42.534Z,99.90
2018-07-02T16:40:14.470Z,99.90
2018-07-02T16:42:46.185Z,99.90
2018-07-02T16:47:49.014Z,99.90
2018-07-02T16:50:21.241Z,99.90
2018-07-02T16:52:54.458Z,99.90
2018-07-02T16:55:26.138Z,99.90
2018-07-02T16:57:58.307Z,99.90
2018-07-02T17:00:30.265Z,99.90
2018-07-02T17:03:02.356Z,99.90
2018-07-02T17:05:34.486Z,99.90
2018-07-02T17:08:07.673Z,99.90
2018-07-02T17:10:39.469Z,99.90
2018-07-02T17:13:12.081Z,99.90
2018-07-02T17:15:44.114Z,99.90
2018-07-02T17:18:16.110Z,99.90
2018-07-02T17:20:47.904Z,99.90
2018-07-02T17:25:51.008Z,99.90
2018-07-02T17:28:22.826Z,99.90
2018-07-02T17:30:54.611Z,99.90
2018-07-02T17:33:26.713Z,99.90
2018-07-02T17:35:58.113Z,99.90
2018-07-02T17:41:01.203Z,99.90
2018-07-02T17:43:33.101Z,99.90
2018-07-02T17:46:05.270Z,99.90
2018-07-02T17:48:37.593Z,99.90
2018-07-02T17:51:09.425Z,99.90
2018-07-02T17:53:42.954Z,99.90
2018-07-02T17:56:15.074Z,99.90
2018-07-02T17:58:47.293Z,99.90
2018-07-02T18:01:19.005Z,99.90
2018-07-02T18:03:51.213Z,99.90
2018-07-02T18:06:23.020Z,99.90
2018-07-02T18:11:25.854Z,99.90
2018-07-02T18:13:57.891Z,99.90
2018-07-02T18:16:30.212Z,99.90
2018-07-02T18:19:02.365Z,99.90
2018-07-02T18:21:34.187Z,99.90
2018-07-02T18:24:05.956Z,99.90
2018-07-02T18:26:39.738Z,99.90
2018-07-02T18:29:12.217Z,99.90
2018-07-02T18:31:43.877Z,99.90
2018-07-02T18:34:16.064Z,99.90
2018-07-02T18:36:47.734Z,99.90
2018-07-02T18:39:19.769Z,99.90
2018-07-02T18:41:51.543Z,99.90
2018-07-02T18:44:23.693Z,99.90
2018-07-02T18:46:55.962Z,99.90
2018-07-02T18:49:28.658Z,99.90
2018-07-02T18:52:00.947Z,99.90
